Newton Aycliffe, United Kingdom
Current Conditions -  °F | °C
As of 4:20 PM on Wednesday 26 Nov 2014 (Local Time) from EGNV Reporting Station
Haze Haze  
Wind Chill: 42°   Ceiling: 4500
Heat Index: 45°   Visibility: 1.8mi
Dew Point: 43°   Wind: 5mph
Humidity: 93%   Direction: 360°N
Pressure: 29.85"   Gusts: NA
Location:  54.62°N, 1.57°W
Report Text: EGNV 261620Z 36004KT 3000 BR FEW011 SCT026 BKN045 07/06 Q1011
Loading
Personal Weather Stations






























Interactive Weather Map New forecast layout! Learn more

10-Day Weather Forecast

Advertisements
Track Severe Weather on mobile